Warm Springs Summit, Nevada Weather observations

Data are for observation ending at time listed.
 Day   Time    Ave.   Ave.  Ave.  Vector   Max.   Stn.    Total    Solar   Ave.  
  of    of     Air    Rel.  Wind   Wind    Wind   Baro.  Precip.   Rad.    Soil  
Year   Day     Temp.  Hum.  Speed  Dir.    Gust   Pres.                    Temp. 
2014   (PST)    F      %     mph   deg.    mph     mb.     in.     W/m2     F   
------------------------------------------------------------------------------
 106   10:10   53.4    25    8.2    75     13.9   770.0    0.00     913    52.7
 106   10:20   53.1    26    8.6    93     15.5   770.0    0.00     918    52.9
 106   10:30   53.5    25    9.2    91     16.1   769.9    0.00     929    53.1
 106   10:40   53.8    25    8.1    74     12.8   770.0    0.00     941    53.3
 106   10:50   55.3    24    8.1    82     13.9   769.9    0.00     954    53.5
 106   11:00   55.2    24    9.0    87     16.3   769.8    0.00     962    53.8
 106   11:10   54.9    24    8.9    85     17.8   769.7    0.00     970    54.0
 106   11:20   56.6    22    7.8    79     16.7   769.6    0.00     976    54.3
 106   11:30   54.4    24    5.8    51     14.9   769.6    0.00     979    54.6
 106   11:40   55.4    24    7.0   102     13.9   769.6    0.00     985    54.9
 106   11:50   56.5    23    6.6   105     12.2   769.5    0.00     987    55.2
 106   12:00   57.0    22    8.8    81     14.5   769.4    0.00     986    55.5
 106   12:10   56.7    23    8.5   100     15.9   769.4    0.00     984    55.9
 106   12:20   57.3    22    7.7    93     13.0   769.3    0.00     993    56.2
 106   12:30   57.8    22    5.6    42     14.5   769.2    0.00     779    56.5
 106   12:40   57.0    22    9.2    65     17.7   769.1    0.00     994    56.8
 106   12:50   58.0    22    9.7    91     16.9   769.0    0.00     869    57.2
 106   13:00   57.3    22   10.2    76     15.9   769.0    0.00     822    57.5
 106   13:10   59.2    21    8.3    76     15.3   769.0    0.00     940    57.8
 106   13:20   57.3    22    7.1    64     15.8   769.0    0.00     699    58.2
 106   13:30   58.0    22    7.3    90     17.1   768.9    0.00     752    58.5
 106   13:40   58.4    22    5.7    94     13.1   768.9    0.00     910    58.8
 106   13:50   60.3    20    4.8    59      9.5   768.8    0.00     875    59.1
 106   14:00   61.6    19    4.4    77     11.1   768.8    0.00     658    59.4
 106   14:10   59.1    21    5.9    80     13.3   768.7    0.00     489    59.6
 106   14:20   56.1    24    3.7   127      8.3   768.7    0.00     175    59.9
 106   14:30   56.1    24    9.8   108     17.4   768.5    0.00     225    60.2
 106   14:40   56.4    23    8.0    89     12.0   768.5    0.00     503    60.5
 106   14:50   57.7    22    8.8    93     14.2   768.4    0.00     626    60.7
 106   15:00   58.6    22    9.5    95     15.0   768.3    0.00     663    60.9
 106   15:10   59.6    21    7.4    84     13.3   768.3    0.00     576    61.1
 106   15:20   58.7    22    7.4    60     13.3   768.4    0.00     537    61.3
 106   15:30   59.2    21    6.2    60     10.9   768.3    0.00     460    61.5
 106   15:40   59.8    21    5.4    69     11.2   768.3    0.00     554    61.6
 106   15:50   60.9    20    6.1    79     12.2   768.3    0.00     513    61.7
 106   16:00   59.9    21   10.0    96     14.4   768.3    0.00     491    61.8
 106   16:10   58.7    22    7.7   106     12.2   768.5    0.00     438    61.9
 106   16:20   58.4    22    7.8    84     12.8   768.4    0.00     358    62.0
 106   16:30   58.7    22    7.7    74     11.4   768.4    0.00     327    62.1
 106   16:40   58.5    22    5.8    56     13.0   768.5    0.00     327    62.1
 106   16:50   58.0    22    6.8    59     11.9   768.4    0.00     279    62.2
 106   17:00   58.0    22    7.3    66     13.3   768.5    0.00     234    62.2
 106   17:10   56.5    23    9.2    84     13.7   768.4    0.00     225    62.3
 106   17:20   56.5    23    9.5    84     13.9   768.5    0.00     227    62.3
 106   17:30   55.4    24   11.9    89     16.3   768.5    0.00     154    62.3
 106   17:40   54.3    25   10.7    84     16.0   768.6    0.00      66    62.3
 106   17:50   53.5    26   10.1    79     13.9   768.7    0.00      18    62.3
 106   18:00   53.3    26    9.2    72     13.3   768.8    0.00      23    62.3
 106   18:10   52.8    26   10.8    74     15.3   768.8    0.00      14    62.2
 106   18:20   52.6    27    8.5    72     12.5   769.0    0.00       8    62.2
 106   18:30   52.2    27    9.0    68     13.3   769.1    0.00       4    62.1
 106   18:40   51.7    28    8.6    65     11.5   769.2    0.00       1    62.0
 106   18:50   51.3    28    9.4    62     12.5   769.3    0.00       0    61.9
 106   19:00   51.1    28    8.0    68     10.8   769.3    0.00       0    61.8
 106   19:10   50.9    28    7.9    68     10.5   769.4    0.00       0    61.7
 106   19:20   50.9    28    7.0    55     10.3   769.6    0.00       0    61.6
 106   19:30   50.6    29    5.5    38      7.1   769.7    0.00       0    61.5
 106   19:40   50.2    29    4.8    32      7.9   769.9    0.00       0    61.3
 106   19:50   50.3    29    7.1    55      9.1   769.9    0.00       0    61.2
 106   20:00   50.2    29    7.3    54     10.0   769.9    0.00       0    61.1
 106   20:10   50.3    29    7.2    54      9.1   769.9    0.00       0    60.9
 106   20:20   50.0    30    6.8    51      9.5   770.0    0.00       0    60.7
 106   20:30   50.1    30    7.0    51     10.3   770.1    0.00       0    60.6
 106   20:40   49.9    30    6.4    47      8.0   770.2    0.00       0    60.4
 106   20:50   49.2    31    6.6    25      8.4   770.2    0.00       0    60.3
 106   21:00   48.7    31    6.4    30     10.4   770.2    0.00       0    60.1
 106   21:10   49.0    31    8.4    48     12.0   770.2    0.00       0    60.0
 106   21:20   48.6    32    6.2    17     10.7   770.2    0.00       0    59.8
 106   21:30   47.8    33    6.9    10     11.4   770.2    0.00       0    59.6
 106   21:40   47.4    34    6.8    18     11.4   770.3    0.00       0    59.5
 106   21:50   47.5    35    6.9    22     12.4   770.3    0.00       0    59.3
 106   22:00   47.6    36    7.8    32     14.9   770.3    0.00       0    59.2
 106   22:10   47.6    36    9.8    45     14.7   770.4    0.00       0    59.0
 106   22:20   47.3    36    9.2    43     13.2   770.4    0.00       0    58.9
 106   22:30   47.4    36    9.1    41     13.5   770.5    0.00       0    58.7
 106   22:40   46.9    38    7.7    33     11.9   770.6    0.00       0    58.5
 106   22:50   46.4    39    8.1    27     11.5   770.5    0.00       0    58.4
 106   23:00   45.8    41    9.4    41     15.5   770.5    0.00       0    58.2
 106   23:10   46.2    40   10.4    39     16.5   770.5    0.00       0    58.1
 106   23:20   45.9    41   10.2    38     14.9   770.6    0.00       0    57.9
 106   23:30   45.9    41   10.2    42     15.7   770.6    0.00       0    57.8
 106   23:40   45.9    41   10.7    46     15.0   770.6    0.00       0    57.6
 106   23:50   45.9    42   11.7    51     15.7   770.6    0.00       0    57.5
 107    0:00   45.6    42   11.1    47     16.0   770.6    0.00       0    57.3
 107    0:10   45.1    43    9.8    47     12.9   770.6    0.00       0    57.2
 107    0:20   44.6    44    9.3    42     12.5   770.6    0.00       0    57.1
 107    0:30   44.4    44    9.5    44     13.5   770.5    0.00       0    56.9
 107    0:40   44.2    45    9.2    38     13.0   770.5    0.00       0    56.8
 107    0:50   44.1    45    9.4    44     13.1   770.5    0.00       0    56.6
 107    1:00   44.0    45    9.1    41     12.7   770.4    0.00       0    56.5
 107    1:10   43.9    45    9.6    42     13.4   770.4    0.00       0    56.4
 107    1:20   44.0    45   10.4    52     13.1   770.4    0.00       0    56.2
 107    1:30   44.0    45    9.8    48     12.2   770.3    0.00       0    56.1
 107    1:40   43.6    46    9.5    44     13.0   770.2    0.00       0    56.0
 107    1:50   43.3    46   10.7    49     13.7   770.2    0.00       0    55.9
 107    2:00   43.2    46    9.5    49     13.1   770.3    0.00       0    55.7
 107    2:10   43.2    47    9.3    51     12.2   770.4    0.00       0    55.6
 107    2:20   43.2    46    8.4    42     11.5   770.4    0.00       0    55.5
 107    2:30   43.1    47    7.9    36     11.4   770.4    0.00       0    55.3
 107    2:40   43.0    47    7.8    47     10.6   770.4    0.00       0    55.2
 107    2:50   43.2    46    8.5    50     10.6   770.4    0.00       0    55.1
 107    3:00   43.2    47    8.4    48      9.9   770.4    0.00       0    55.0
 107    3:10   43.2    47    7.9    47     10.0   770.4    0.00       0    54.9
 107    3:20   43.1    46    8.6    50     11.0   770.4    0.00       0    54.7
 107    3:30   42.7    47    8.3    41     10.3   770.4    0.00       0    54.6
 107    3:40   42.4    48    7.7    43     10.6   770.4    0.00       0    54.5
 107    3:50   42.6    48    8.3    34     10.5   770.4    0.00       0    54.4
 107    4:00   42.5    48    7.9    37      9.9   770.4    0.00       0    54.3
 107    4:10   42.7    47    8.3    40     10.3   770.3    0.00       0    54.2
 107    4:20   42.6    47    8.7    39     11.7   770.3    0.00       0    54.0
 107    4:30   42.6    47    8.8    48     11.1   770.3    0.00       0    53.9
 107    4:40   43.0    47   10.5    56     13.6   770.4    0.00       0    53.8
 107    4:50   43.1    46   10.7    59     13.5   770.4    0.00       0    53.7
 107    5:00   42.6    48   10.3    64     11.7   770.5    0.00       2    53.6
 107    5:10   42.4    48    9.8    63     11.5   770.6    0.00       5    53.5
 107    5:20   43.0    47    9.7    70     12.3   770.7    0.00      14    53.4
 107    5:30   43.9    45    9.8    81     12.2   770.8    0.00      34    53.3
 107    5:40   44.3    45    9.4    74     11.3   770.9    0.00      65    53.2
 107    5:50   44.9    44    8.3    70     10.0   770.9    0.00     103    53.1
 107    6:00   45.8    42    8.5    75     10.7   770.9    0.00     141    53.0
 107    6:10   46.5    41    8.2    74     10.6   771.0    0.00     174    52.9
 107    6:20   47.0    40    8.4    67     10.6   771.1    0.00     208    52.8
 107    6:30   46.9    40    7.5    57      8.8   771.2    0.00     240    52.7
 107    6:40   47.4    40    9.0    63     12.2   771.2    0.00     277    52.6
 107    6:50   47.6    40    8.1    58     11.5   771.3    0.00     315    52.5
 107    7:00   48.0    39    8.8    62     11.7   771.3    0.00     351    52.5
 107    7:10   48.4    37    9.9    64     12.8   771.2    0.00     392    52.4
 107    7:20   48.8    37    9.1    60     12.5   771.2    0.00     434    52.4
 107    7:30   49.5    36    8.4    63     12.7   771.2    0.00     460    52.3
 107    7:40   49.9    36    9.8    74     14.9   771.2    0.00     496    52.3
 107    7:50   50.0    35    9.8    73     13.7   771.1    0.00     537    52.3
 107    8:00   49.6    36   10.6    76     14.9   771.1    0.00     518    52.3
 107    8:10   50.0    35    9.8    71     13.3   771.1    0.00     543    52.3
 107    8:20   50.7    34    9.9    74     13.9   771.1    0.00     580    52.3
 107    8:30   50.4    34   10.8    74     15.2   771.0    0.00     634    52.4
 107    8:40   50.9    34   10.1    77     14.7   771.1    0.00     707    52.5
 107    8:50   51.4    33    9.9    73     17.9   771.1    0.00     730    52.6
 107    9:00   52.8    32   10.0    79     14.5   771.1    0.00     742    52.6
 107    9:10   53.9    31    9.4    76     14.6   771.1    0.00     782    52.8
 107    9:20   54.8    30    9.2    81     15.5   771.2    0.00     823    52.9
 107    9:30   53.9    31   10.1    89     16.6   771.2    0.00     780    53.0
 107    9:40   54.4    30    8.8    87     14.7   771.2    0.00     795    53.2
 107    9:50   55.5    29   10.1    95     17.4   771.1    0.00     841    53.4
 107   10:00   55.2    29   10.7   103     20.1   771.1    0.00     856    53.5

Return to Warm Springs Summit, Nevada graphs page.


Western Regional Climate Center,wrcc@dri.edu